createdAt,value
2023-05-19T00:00:37.906Z,5.80
2023-05-19T00:03:06.129Z,6.60
2023-05-19T00:05:40.817Z,6.30
2023-05-19T00:08:10.642Z,6.40
2023-05-19T00:10:39.340Z,6.60
2023-05-19T00:13:07.727Z,6.30
2023-05-19T00:15:36.202Z,7.00
2023-05-19T00:18:03.855Z,7.10
2023-05-19T00:20:31.509Z,6.70
2023-05-19T00:22:59.026Z,5.90
2023-05-19T00:25:27.234Z,7.30
2023-05-19T00:27:54.611Z,6.90
2023-05-19T00:30:23.114Z,6.80
2023-05-19T00:32:51.162Z,6.90
2023-05-19T00:35:18.886Z,6.60
2023-05-19T00:37:46.722Z,7.60
2023-05-19T00:40:14.447Z,7.60
2023-05-19T00:42:42.402Z,6.90
2023-05-19T00:45:10.749Z,7.00
2023-05-19T00:47:39.847Z,7.20
2023-05-19T00:50:07.651Z,6.90
2023-05-19T00:52:35.364Z,7.70
2023-05-19T00:55:02.922Z,7.80
2023-05-19T00:57:30.716Z,8.10
2023-05-19T00:59:58.120Z,7.40
2023-05-19T01:02:25.617Z,7.80
2023-05-19T01:04:53.620Z,7.60
2023-05-19T01:07:21.227Z,7.90
2023-05-19T01:09:49.144Z,8.20
2023-05-19T01:12:16.617Z,7.70
2023-05-19T01:14:44.406Z,7.40
2023-05-19T01:17:27.642Z,7.80
2023-05-19T01:20:16.217Z,7.80
2023-05-19T01:23:36.672Z,7.70
2023-05-19T01:26:20.972Z,8.20
2023-05-19T01:29:26.917Z,7.90
2023-05-19T01:31:59.546Z,8.60
2023-05-19T01:34:28.093Z,8.00
2023-05-19T01:36:56.301Z,8.40
2023-05-19T01:39:23.744Z,7.90
2023-05-19T01:41:52.024Z,8.00
2023-05-19T01:44:22.199Z,7.80
2023-05-19T01:46:50.652Z,8.20
2023-05-19T01:49:18.174Z,7.90
2023-05-19T01:51:45.886Z,8.10
2023-05-19T01:54:13.290Z,8.10
2023-05-19T01:57:08.230Z,8.50
2023-05-19T01:59:50.892Z,8.50
2023-05-19T02:02:31.270Z,8.60
2023-05-19T02:05:10.473Z,8.80
2023-05-19T02:07:46.980Z,8.40
2023-05-19T02:10:31.223Z,8.10
2023-05-19T02:13:04.949Z,8.00
2023-05-19T02:15:42.362Z,8.60
2023-05-19T02:18:12.008Z,8.40
2023-05-19T02:20:40.768Z,8.70
2023-05-19T02:23:08.185Z,9.10
2023-05-19T02:25:35.763Z,9.60
2023-05-19T02:28:03.221Z,9.10
2023-05-19T02:30:32.157Z,8.70
2023-05-19T02:33:00.746Z,8.50
2023-05-19T02:35:28.277Z,8.50
2023-05-19T02:37:55.658Z,9.30
2023-05-19T02:40:23.338Z,8.80
2023-05-19T02:42:50.895Z,9.80
2023-05-19T02:45:18.288Z,9.20
2023-05-19T02:47:46.148Z,9.60
2023-05-19T02:50:13.703Z,9.50
2023-05-19T02:52:41.090Z,8.50
2023-05-19T02:55:09.034Z,9.70
2023-05-19T02:57:36.495Z,9.60
2023-05-19T03:00:09.056Z,9.30
2023-05-19T03:02:36.560Z,8.80
2023-05-19T03:05:04.787Z,10.00
2023-05-19T03:07:33.793Z,10.00
2023-05-19T03:10:04.097Z,10.20
2023-05-19T03:12:32.640Z,9.40
2023-05-19T03:15:01.097Z,10.30
2023-05-19T03:17:33.794Z,9.70
2023-05-19T03:20:02.010Z,9.80
2023-05-19T03:22:29.377Z,10.10
2023-05-19T03:24:58.596Z,10.30
2023-05-19T03:27:26.031Z,9.90
2023-05-19T03:29:54.120Z,9.80
2023-05-19T03:32:21.659Z,10.10
2023-05-19T03:34:49.216Z,10.50
2023-05-19T03:37:16.597Z,10.10
2023-05-19T03:39:44.184Z,10.20
2023-05-19T03:42:11.667Z,10.50
2023-05-19T03:44:39.055Z,11.20
2023-05-19T03:47:06.603Z,9.80
2023-05-19T03:49:34.004Z,9.60
2023-05-19T03:52:03.479Z,11.10
2023-05-19T03:54:31.762Z,12.10
2023-05-19T03:56:59.258Z,10.70
2023-05-19T03:59:26.671Z,10.80
2023-05-19T04:01:54.525Z,11.00
2023-05-19T04:04:22.041Z,10.90
2023-05-19T04:06:49.614Z,10.10
2023-05-19T04:09:17.070Z,10.80
2023-05-19T04:11:44.494Z,9.90
2023-05-19T04:14:12.021Z,11.80
2023-05-19T04:16:39.556Z,11.10
2023-05-19T04:19:07.069Z,11.60
2023-05-19T04:21:34.649Z,11.10
2023-05-19T04:24:02.715Z,10.10
2023-05-19T04:26:31.010Z,10.40
2023-05-19T04:28:58.623Z,11.10
2023-05-19T04:31:27.526Z,10.10
2023-05-19T04:33:55.250Z,10.30
2023-05-19T04:36:22.739Z,10.70
2023-05-19T04:38:54.782Z,10.50
2023-05-19T04:41:23.088Z,11.80
2023-05-19T04:43:50.576Z,11.30
2023-05-19T04:46:17.947Z,10.80
2023-05-19T04:48:45.836Z,11.30
2023-05-19T04:51:14.413Z,12.00
2023-05-19T04:53:42.786Z,12.00
2023-05-19T04:56:13.744Z,11.30
2023-05-19T04:58:42.216Z,11.00
2023-05-19T05:01:09.679Z,11.40
2023-05-19T05:03:37.193Z,11.40
2023-05-19T05:06:05.018Z,11.30
2023-05-19T05:08:32.933Z,10.30
2023-05-19T05:11:01.462Z,10.70
2023-05-19T05:13:29.591Z,11.20
2023-05-19T05:15:57.745Z,11.00
2023-05-19T05:18:26.451Z,10.90
2023-05-19T05:20:54.577Z,11.20
2023-05-19T05:23:22.810Z,11.30
2023-05-19T05:25:50.703Z,10.50
2023-05-19T05:28:18.237Z,11.10
2023-05-19T05:30:46.488Z,11.00
2023-05-19T05:33:14.121Z,11.50
2023-05-19T05:35:41.687Z,10.30
2023-05-19T05:38:11.552Z,11.80
2023-05-19T05:40:39.144Z,10.70
2023-05-19T05:43:06.476Z,10.20
2023-05-19T05:45:34.290Z,10.60
2023-05-19T05:48:02.558Z,10.60
2023-05-19T05:50:31.100Z,10.50
2023-05-19T05:53:01.622Z,10.30
2023-05-19T05:55:30.143Z,11.20
2023-05-19T05:57:59.063Z,11.30
2023-05-19T06:00:28.376Z,11.20
2023-05-19T06:02:57.430Z,10.70
2023-05-19T06:05:25.297Z,10.20
2023-05-19T06:07:53.028Z,10.20
2023-05-19T06:10:20.652Z,10.80
2023-05-19T06:12:48.153Z,11.00
2023-05-19T06:15:15.584Z,10.40
2023-05-19T06:17:43.054Z,11.10
2023-05-19T06:20:13.030Z,10.40
2023-05-19T06:22:40.495Z,10.70
2023-05-19T06:25:09.140Z,10.50
2023-05-19T06:27:36.521Z,10.90
2023-05-19T06:30:04.362Z,10.00
2023-05-19T06:32:31.957Z,10.00
2023-05-19T06:34:59.623Z,9.60
2023-05-19T06:37:31.914Z,9.10
2023-05-19T06:39:59.392Z,10.00
2023-05-19T06:42:26.951Z,9.40
2023-05-19T06:44:56.085Z,10.30
2023-05-19T06:47:23.536Z,9.90
2023-05-19T06:49:54.908Z,10.00
2023-05-19T06:54:50.751Z,9.30
2023-05-19T06:57:18.269Z,8.40
2023-05-19T06:59:46.806Z,9.80
2023-05-19T07:02:14.344Z,9.40
2023-05-19T07:04:42.628Z,9.60
2023-05-19T07:07:10.168Z,9.20
2023-05-19T07:09:37.623Z,8.80
2023-05-19T07:12:06.042Z,9.00
2023-05-19T07:14:33.452Z,8.20
2023-05-19T07:17:00.886Z,8.40
2023-05-19T07:19:28.605Z,7.90
2023-05-19T07:21:57.170Z,8.00
2023-05-19T07:24:25.156Z,8.00
2023-05-19T07:26:52.577Z,8.10
2023-05-19T07:29:19.974Z,8.10
2023-05-19T07:31:47.496Z,8.40
2023-05-19T07:34:15.061Z,7.90
2023-05-19T07:36:42.502Z,8.20
2023-05-19T07:39:10.464Z,7.80
2023-05-19T07:41:38.560Z,7.80
2023-05-19T07:44:07.829Z,7.40
2023-05-19T07:46:36.179Z,7.70
2023-05-19T07:49:04.698Z,8.20
2023-05-19T07:51:32.086Z,7.60
2023-05-19T07:53:59.471Z,7.70
2023-05-19T07:56:27.439Z,7.60
2023-05-19T07:58:55.131Z,7.60
2023-05-19T08:01:22.537Z,7.20
2023-05-19T08:03:50.179Z,7.10
2023-05-19T08:06:17.814Z,7.90
2023-05-19T08:08:46.422Z,7.20
2023-05-19T08:11:13.913Z,7.20
2023-05-19T08:13:41.354Z,8.50
2023-05-19T08:16:08.754Z,7.80
2023-05-19T08:18:36.187Z,6.90
2023-05-19T08:21:03.907Z,6.80
2023-05-19T08:23:31.860Z,7.70
2023-05-19T08:26:00.359Z,7.10
2023-05-19T08:28:27.772Z,6.70
2023-05-19T08:30:55.310Z,6.80
2023-05-19T08:33:22.959Z,7.50
2023-05-19T08:35:51.106Z,7.60
2023-05-19T08:38:18.551Z,6.40
2023-05-19T08:40:48.532Z,6.30
2023-05-19T08:43:15.996Z,5.60
2023-05-19T08:45:48.263Z,6.20
2023-05-19T08:48:19.437Z,6.20
2023-05-19T08:51:17.121Z,5.80
2023-05-19T08:53:50.988Z,6.40
2023-05-19T08:56:23.057Z,6.20
2023-05-19T08:58:51.905Z,6.70
2023-05-19T09:01:20.737Z,8.90
2023-05-19T09:03:50.062Z,6.50
2023-05-19T09:06:17.879Z,6.60
2023-05-19T09:08:45.520Z,5.10
2023-05-19T09:11:13.188Z,5.90
2023-05-19T09:13:41.114Z,6.30
2023-05-19T09:16:08.929Z,6.20
2023-05-19T09:18:40.092Z,5.10
2023-05-19T09:21:08.093Z,5.20
2023-05-19T09:23:35.692Z,5.10
2023-05-19T09:26:07.705Z,5.20
2023-05-19T09:28:37.938Z,5.20
2023-05-19T09:31:08.545Z,6.60
2023-05-19T09:33:45.632Z,5.80
2023-05-19T09:36:14.350Z,5.80
2023-05-19T09:38:41.909Z,4.70
2023-05-19T09:41:09.890Z,4.60
2023-05-19T09:43:37.437Z,4.60
2023-05-19T09:46:13.609Z,5.00
2023-05-19T09:48:42.533Z,4.80
2023-05-19T09:51:12.876Z,4.90
2023-05-19T09:53:40.429Z,4.10
2023-05-19T09:56:08.853Z,4.00
2023-05-19T09:58:37.611Z,4.50
2023-05-19T10:01:06.050Z,4.50
2023-05-19T10:03:34.501Z,4.50
2023-05-19T10:06:04.619Z,4.00
2023-05-19T10:08:34.372Z,4.10
2023-05-19T10:11:02.652Z,3.90
2023-05-19T10:13:31.376Z,3.10
2023-05-19T10:16:00.159Z,3.40
2023-05-19T10:18:29.926Z,3.50
2023-05-19T10:20:59.160Z,3.70
2023-05-19T10:23:27.023Z,4.10
2023-05-19T10:25:59.254Z,3.70
2023-05-19T10:28:37.293Z,3.60
2023-05-19T10:31:09.957Z,3.20
2023-05-19T10:34:08.558Z,3.60
2023-05-19T10:36:50.122Z,3.40
2023-05-19T10:39:35.747Z,4.00
2023-05-19T10:42:17.190Z,3.70
2023-05-19T10:45:02.546Z,3.80
2023-05-19T10:47:30.564Z,3.60
2023-05-19T10:50:01.074Z,3.40
2023-05-19T10:52:31.130Z,3.70
2023-05-19T10:54:59.080Z,3.20
2023-05-19T10:57:28.299Z,3.10
2023-05-19T10:59:57.463Z,3.10
2023-05-19T11:02:44.121Z,4.10
2023-05-19T11:05:16.346Z,3.00
2023-05-19T11:07:54.639Z,3.40
2023-05-19T11:10:25.739Z,3.80
2023-05-19T11:12:53.462Z,3.40
2023-05-19T11:15:26.531Z,2.80
2023-05-19T11:17:54.736Z,3.30
2023-05-19T11:20:29.124Z,4.00
2023-05-19T11:23:19.561Z,3.10
2023-05-19T11:25:48.791Z,3.10
2023-05-19T11:28:19.904Z,3.60
2023-05-19T11:30:52.505Z,3.40
2023-05-19T11:33:21.829Z,3.00
2023-05-19T11:35:51.317Z,3.00
2023-05-19T11:38:19.903Z,3.50
2023-05-19T11:40:49.840Z,3.60
2023-05-19T11:43:17.322Z,3.60
2023-05-19T11:45:45.923Z,3.60
2023-05-19T11:48:15.978Z,4.10
2023-05-19T11:50:46.984Z,3.80
2023-05-19T11:53:16.572Z,3.80
2023-05-19T11:55:48.406Z,3.10
2023-05-19T11:58:16.960Z,3.30
2023-05-19T12:00:48.349Z,3.60
2023-05-19T12:03:17.519Z,3.60
2023-05-19T12:05:48.622Z,3.60
2023-05-19T12:08:21.701Z,3.50
2023-05-19T12:10:51.053Z,3.20
2023-05-19T12:13:19.636Z,3.10
2023-05-19T12:15:47.273Z,3.10
2023-05-19T12:18:14.817Z,3.60
2023-05-19T12:20:42.371Z,3.30
2023-05-19T12:23:09.968Z,3.60
2023-05-19T12:25:38.634Z,3.30
2023-05-19T12:28:07.412Z,3.90
2023-05-19T12:30:35.465Z,3.10
2023-05-19T12:33:03.733Z,3.80
2023-05-19T12:35:36.309Z,3.40
2023-05-19T12:38:06.393Z,3.70
2023-05-19T12:40:42.204Z,3.20
2023-05-19T12:43:21.055Z,3.50
2023-05-19T12:45:49.259Z,3.40
2023-05-19T12:48:17.182Z,3.70
2023-05-19T12:50:45.229Z,3.40
2023-05-19T12:53:15.357Z,3.30
2023-05-19T12:55:45.389Z,3.20
2023-05-19T12:58:13.602Z,3.30
2023-05-19T13:00:47.684Z,3.40
2023-05-19T13:03:18.595Z,2.90
2023-05-19T13:05:49.106Z,3.60
2023-05-19T13:08:20.295Z,2.80
2023-05-19T13:10:49.847Z,3.20
2023-05-19T13:13:18.313Z,2.90
2023-05-19T13:15:49.216Z,3.80
2023-05-19T13:18:17.985Z,3.40
2023-05-19T13:20:47.505Z,3.40
2023-05-19T13:23:17.115Z,3.60
2023-05-19T13:25:44.624Z,3.50
2023-05-19T13:28:12.928Z,3.10
2023-05-19T13:30:42.017Z,3.10
2023-05-19T13:33:09.778Z,3.20
2023-05-19T13:35:37.920Z,3.20
2023-05-19T13:38:10.575Z,2.60
2023-05-19T13:40:39.981Z,2.70
2023-05-19T13:43:08.910Z,3.00
2023-05-19T13:45:37.007Z,3.00
2023-05-19T13:48:07.290Z,3.10
2023-05-19T13:50:34.979Z,3.10
2023-05-19T13:53:03.635Z,3.20
2023-05-19T13:55:31.804Z,3.00
2023-05-19T13:57:59.280Z,2.90
2023-05-19T14:00:26.729Z,2.40
2023-05-19T14:02:54.227Z,3.00
2023-05-19T14:05:21.911Z,3.30
2023-05-19T14:07:49.417Z,3.00
2023-05-19T14:10:16.759Z,3.40
2023-05-19T14:13:07.936Z,3.20
2023-05-19T14:15:34.610Z,3.00
2023-05-19T14:18:02.763Z,2.80
2023-05-19T14:20:31.669Z,3.20
2023-05-19T14:22:59.374Z,3.10
2023-05-19T14:25:26.872Z,2.80
2023-05-19T14:27:54.211Z,3.50
2023-05-19T14:30:21.688Z,3.20
2023-05-19T14:32:49.103Z,2.90
2023-05-19T14:35:16.514Z,2.90
2023-05-19T14:37:43.929Z,3.20
2023-05-19T14:40:12.480Z,3.00
2023-05-19T14:42:39.895Z,2.90
2023-05-19T14:45:08.554Z,2.90
2023-05-19T14:47:36.121Z,2.90
2023-05-19T14:50:03.927Z,2.80
2023-05-19T14:52:31.386Z,2.90
2023-05-19T14:54:58.805Z,3.00
2023-05-19T14:57:26.349Z,3.20
2023-05-19T14:59:53.764Z,2.90
2023-05-19T15:02:21.179Z,2.90
2023-05-19T15:04:48.626Z,2.70
2023-05-19T15:07:16.605Z,2.70
2023-05-19T15:09:44.118Z,2.60
2023-05-19T15:12:11.630Z,3.00
2023-05-19T15:14:39.052Z,2.90
2023-05-19T15:17:06.454Z,3.00
2023-05-19T15:19:34.038Z,2.80
2023-05-19T15:22:01.537Z,2.90
2023-05-19T15:24:28.935Z,3.00
2023-05-19T15:26:56.429Z,3.00
2023-05-19T15:29:23.860Z,3.10
2023-05-19T15:31:51.946Z,3.20
2023-05-19T15:34:20.931Z,2.90
2023-05-19T15:36:48.401Z,2.60
2023-05-19T15:39:15.927Z,3.10
2023-05-19T15:41:43.463Z,2.60
2023-05-19T15:44:11.098Z,2.90
2023-05-19T15:46:38.639Z,3.00
2023-05-19T15:49:06.276Z,2.70
2023-05-19T15:51:34.285Z,3.00
2023-05-19T15:54:01.662Z,2.90
2023-05-19T15:56:29.078Z,2.80
2023-05-19T15:58:56.518Z,2.90
2023-05-19T16:01:24.008Z,2.70
2023-05-19T16:03:51.597Z,2.70
2023-05-19T16:06:19.211Z,2.70
2023-05-19T16:08:46.723Z,3.00
2023-05-19T16:11:14.694Z,2.50
2023-05-19T16:13:42.316Z,2.60
2023-05-19T16:16:09.740Z,2.40
2023-05-19T16:18:37.282Z,3.00
2023-05-19T16:21:05.650Z,2.90
2023-05-19T16:23:33.194Z,2.90
2023-05-19T16:26:01.144Z,2.90
2023-05-19T16:28:28.842Z,3.00
2023-05-19T16:31:00.389Z,2.40
2023-05-19T16:33:28.579Z,2.50
2023-05-19T16:35:58.198Z,2.80
2023-05-19T16:38:26.780Z,2.50
2023-05-19T16:40:54.212Z,2.70
2023-05-19T16:43:21.742Z,2.50
2023-05-19T16:45:49.219Z,2.40
2023-05-19T16:48:16.683Z,2.40
2023-05-19T16:50:44.098Z,2.60
2023-05-19T16:53:11.532Z,2.30
2023-05-19T16:55:38.941Z,2.40
2023-05-19T16:58:06.461Z,2.30
2023-05-19T17:00:34.069Z,2.80
2023-05-19T17:03:01.768Z,2.60
2023-05-19T17:05:29.316Z,2.30
2023-05-19T17:07:56.691Z,2.40
2023-05-19T17:10:24.081Z,2.00
2023-05-19T17:12:51.602Z,2.60
2023-05-19T17:15:19.309Z,3.00
2023-05-19T17:17:46.703Z,2.50
2023-05-19T17:20:14.234Z,2.40
2023-05-19T17:22:41.932Z,2.30
2023-05-19T17:25:10.011Z,2.40
2023-05-19T17:27:37.486Z,2.60
2023-05-19T17:30:06.048Z,2.50
2023-05-19T17:32:39.015Z,2.50
2023-05-19T17:35:08.561Z,2.50
2023-05-19T17:37:36.470Z,2.50
2023-05-19T17:40:05.005Z,2.50
2023-05-19T17:42:33.144Z,2.70
2023-05-19T17:45:00.605Z,2.80
2023-05-19T17:47:28.011Z,2.80
2023-05-19T17:49:55.539Z,2.80
2023-05-19T17:52:25.807Z,2.60
2023-05-19T17:54:53.829Z,2.40
2023-05-19T17:57:25.411Z,2.70
2023-05-19T17:59:53.832Z,2.60
2023-05-19T18:02:21.699Z,2.70
2023-05-19T18:04:49.894Z,2.90
2023-05-19T18:07:18.682Z,2.70
2023-05-19T18:09:46.869Z,2.70
2023-05-19T18:12:14.342Z,2.80
2023-05-19T18:14:41.743Z,2.60
2023-05-19T18:17:09.143Z,3.80
2023-05-19T18:19:36.586Z,2.90
2023-05-19T18:22:04.233Z,3.50
2023-05-19T18:24:31.729Z,2.90
2023-05-19T18:26:59.422Z,2.90
2023-05-19T18:29:26.803Z,2.80
2023-05-19T18:31:54.277Z,2.70
2023-05-19T18:34:21.771Z,3.20
2023-05-19T18:36:49.295Z,3.60
2023-05-19T18:39:16.819Z,3.30
2023-05-19T18:41:44.341Z,3.50
2023-05-19T18:44:12.020Z,3.90
2023-05-19T18:46:39.465Z,3.30
2023-05-19T18:49:06.976Z,3.50
2023-05-19T18:51:36.152Z,3.80
2023-05-19T18:54:03.684Z,3.30
2023-05-19T18:56:33.557Z,3.20
2023-05-19T18:59:01.100Z,3.50
2023-05-19T19:01:28.725Z,3.20
2023-05-19T19:03:56.383Z,4.00
2023-05-19T19:06:23.967Z,3.20
2023-05-19T19:08:51.479Z,3.50
2023-05-19T19:11:19.151Z,4.30
2023-05-19T19:13:47.078Z,4.00
2023-05-19T19:16:14.530Z,4.90
2023-05-19T19:18:42.056Z,3.70
2023-05-19T19:21:09.629Z,4.10
2023-05-19T19:23:37.174Z,4.00
2023-05-19T19:26:04.634Z,4.10
2023-05-19T19:28:32.368Z,3.50
2023-05-19T19:30:59.765Z,4.50
2023-05-19T19:33:27.205Z,4.20
2023-05-19T19:35:54.645Z,3.50
2023-05-19T19:38:22.071Z,3.90
2023-05-19T19:40:52.592Z,3.70
2023-05-19T19:43:20.243Z,3.90
2023-05-19T19:45:47.665Z,3.40
2023-05-19T19:48:15.071Z,3.80
2023-05-19T19:50:42.568Z,3.50
2023-05-19T19:53:10.028Z,4.10
2023-05-19T19:55:37.400Z,3.80
2023-05-19T19:58:04.918Z,3.70
2023-05-19T20:00:32.501Z,3.90
2023-05-19T20:03:04.971Z,3.90
2023-05-19T20:05:33.259Z,4.00
2023-05-19T20:08:00.828Z,4.00
2023-05-19T20:10:28.293Z,4.50
2023-05-19T20:12:56.174Z,4.20
2023-05-19T20:15:23.656Z,3.80
2023-05-19T20:17:51.293Z,4.30
2023-05-19T20:20:18.892Z,4.10
2023-05-19T20:22:46.284Z,4.80
2023-05-19T20:25:13.756Z,4.30
2023-05-19T20:27:41.190Z,5.30
2023-05-19T20:30:09.417Z,4.60
2023-05-19T20:32:37.030Z,4.30
2023-05-19T20:35:05.316Z,4.70
2023-05-19T20:37:32.753Z,4.60
2023-05-19T20:40:00.357Z,4.60
2023-05-19T20:42:27.787Z,4.40
2023-05-19T20:44:55.878Z,4.70
2023-05-19T20:47:23.390Z,4.70
2023-05-19T20:49:50.850Z,4.90
2023-05-19T20:52:18.830Z,4.50
2023-05-19T20:54:46.541Z,5.60
2023-05-19T20:57:14.019Z,5.30
2023-05-19T20:59:41.423Z,5.40
2023-05-19T21:02:09.613Z,5.20
2023-05-19T21:04:38.740Z,6.20
2023-05-19T21:07:06.580Z,6.90
2023-05-19T21:09:34.069Z,6.20
2023-05-19T21:12:02.085Z,6.60
2023-05-19T21:14:29.451Z,6.70
2023-05-19T21:16:57.118Z,7.50
2023-05-19T21:19:24.751Z,6.80
2023-05-19T21:21:52.319Z,6.70
2023-05-19T21:24:19.720Z,7.00
2023-05-19T21:26:49.326Z,6.50
2023-05-19T21:29:17.023Z,6.90
2023-05-19T21:31:44.420Z,6.60
2023-05-19T21:34:11.964Z,6.70
2023-05-19T21:36:39.623Z,7.50
2023-05-19T21:39:07.103Z,6.80
2023-05-19T21:41:35.653Z,7.00
2023-05-19T21:44:03.645Z,6.40
2023-05-19T21:46:31.173Z,7.20
2023-05-19T21:48:58.726Z,8.00
2023-05-19T21:51:26.124Z,6.80
2023-05-19T21:53:53.504Z,7.40
2023-05-19T21:56:21.234Z,7.50
2023-05-19T21:58:48.649Z,7.40
2023-05-19T22:01:16.079Z,7.10
2023-05-19T22:03:43.585Z,7.20
2023-05-19T22:06:11.337Z,8.00
2023-05-19T22:08:38.780Z,8.20
2023-05-19T22:11:06.851Z,7.90
2023-05-19T22:13:34.281Z,8.00
2023-05-19T22:16:04.505Z,7.30
2023-05-19T22:18:32.042Z,7.60
2023-05-19T22:20:59.522Z,8.70
2023-05-19T22:23:26.898Z,8.10
2023-05-19T22:25:54.384Z,8.40
2023-05-19T22:28:21.826Z,8.00
2023-05-19T22:30:49.419Z,8.60
2023-05-19T22:33:16.855Z,8.40
2023-05-19T22:35:44.289Z,8.10
2023-05-19T22:38:11.939Z,9.00
2023-05-19T22:40:39.673Z,8.10
2023-05-19T22:43:07.105Z,8.10
2023-05-19T22:45:37.095Z,8.20
2023-05-19T22:48:05.517Z,7.70
2023-05-19T22:50:33.082Z,9.00
2023-05-19T22:53:00.685Z,8.20
2023-05-19T22:55:28.152Z,7.90
2023-05-19T22:57:56.236Z,8.10
2023-05-19T23:00:23.901Z,8.70
2023-05-19T23:02:51.478Z,7.70
2023-05-19T23:05:18.991Z,9.30
2023-05-19T23:07:47.069Z,8.80
2023-05-19T23:10:14.508Z,9.30
2023-05-19T23:12:42.615Z,8.60
2023-05-19T23:15:11.313Z,8.50
2023-05-19T23:17:38.989Z,8.00
2023-05-19T23:20:07.529Z,7.90
2023-05-19T23:22:34.957Z,7.80
2023-05-19T23:25:05.799Z,8.90
2023-05-19T23:27:36.844Z,8.20
2023-05-19T23:30:05.552Z,7.60
2023-05-19T23:32:33.012Z,8.00
2023-05-19T23:35:16.214Z,8.30
2023-05-19T23:37:43.771Z,8.60
2023-05-19T23:40:12.499Z,7.50
2023-05-19T23:42:40.031Z,8.50
2023-05-19T23:45:09.757Z,8.90
2023-05-19T23:47:37.345Z,7.60
2023-05-19T23:50:05.462Z,7.90
2023-05-19T23:52:32.927Z,8.00
2023-05-19T23:55:00.573Z,7.20
2023-05-19T23:57:28.001Z,7.50
2023-05-19T23:59:55.710Z,7.70
